Senkomamaru — JD2515 — position and weather

sailwx.info

Track history (hours):
 
Tides and Currents Weather Stations Pressure Air Temp Water Temp Dewpoint Dewpoint Depression Visibility Wind Speed Wind Dir Waves Ship Positions

Senkomamaru

Last reported at 2018-Jun-20 10:00 UTC. Time now 2018-Jun-21 02:50 UTC.
Position N 34°12' E 134°40'.

Length 76 m; draft 4.2 m.

MMSI: 431000376.

Date/timePositionNaut miles runAvg speedWind from/ knotsBaromVisibWave heightAir tempDewpointWater temp
2018-Jun-20 10:00N 34°12' E 134°40'612.4
2018-Jun-20 09:30N 34°17' E 134°35'612.4
2018-Jun-20 09:00N 34°19' E 134°27'612.4
2018-Jun-20 08:30N 34°21' E 134°21'  
2018-Jun-17 09:14N 34°35' E 134°20'1012.6
2018-Jun-17 08:27N 34°35' E 134°32'612.5
2018-Jun-17 07:59N 34°36' E 134°39'612.3
2018-Jun-17 07:30N 34°36' E 134°47'610.6
2018-Jun-17 06:58N 34°37' E 134°53'510.4
2018-Jun-17 06:29N 34°38' E 134°59'4 9.3
2018-Jun-17 06:00N 34°36' E 135°04'611.5
2018-Jun-17 05:30N 34°30' E 135°04'612.7
2018-Jun-17 05:00N 34°24' E 135°02'612.5
2018-Jun-17 04:30N 34°18' E 134°60'611.9
2018-Jun-17 03:59N 34°12' E 134°60'612.8
2018-Jun-17 03:30N 34°06' E 135°00'713.0
2018-Jun-17 03:00N 33°59' E 135°02'612.6
2018-Jun-17 02:30N 33°53' E 135°03'3 0.1
2018-Jun-15 02:44N 33°50' E 135°03'313.9
2018-Jun-15 02:29N 33°53' E 135°00'613.4
2018-Jun-15 02:00N 33°57' E 134°56'712.6
2018-Jun-15 01:29N 34°03' E 134°50'713.0
2018-Jun-15 00:56N 34°08' E 134°45'512.7
2018-Jun-15 00:30N 34°12' E 134°41'10 1.9
2018-Jun-14 18:54N 34°17' E 134°29'511.9
2018-Jun-14 18:30N 34°19' E 134°24'3 0.1
2018-Jun-13 07:00N 34°21' E 134°27'1313.1
2018-Jun-13 06:01N 34°14' E 134°39'012.0
2018-Jun-13 05:59N 34°13' E 134°40'811.9
2018-Jun-13 05:18N 34°07' E 134°46'412.4
2018-Jun-13 05:00N 34°04' E 134°49'712.7
2018-Jun-13 04:29N 33°59' E 134°54'612.1
2018-Jun-13 04:00N 33°54' E 134°58'510.6
2018-Jun-13 03:30N 33°51' E 135°03'711.6
2018-Jun-13 02:54N 33°46' E 135°09'  
Track history (hours):
 
Tides and Currents Weather Stations Pressure Air Temp Water Temp Dewpoint Dewpoint Depression Visibility Wind Speed Wind Dir Waves Ship Positions

Senkomamaru

Last reported at 2018-Jun-20 10:00 UTC. Time now 2018-Jun-21 02:50 UTC.
Position N 34°12' E 134°40'.

Length 76 m; draft 4.2 m.

MMSI: 431000376.

Date/timePositionNaut miles runAvg speedWind from/ knotsBaromVisibWave heightAir tempDewpointWater temp
2018-Jun-20 10:00N 34°12' E 134°40'612.4
2018-Jun-20 09:30N 34°17' E 134°35'612.4
2018-Jun-20 09:00N 34°19' E 134°27'612.4
2018-Jun-20 08:30N 34°21' E 134°21'  
2018-Jun-17 09:14N 34°35' E 134°20'1012.6
2018-Jun-17 08:27N 34°35' E 134°32'612.5
2018-Jun-17 07:59N 34°36' E 134°39'612.3
2018-Jun-17 07:30N 34°36' E 134°47'610.6
2018-Jun-17 06:58N 34°37' E 134°53'510.4
2018-Jun-17 06:29N 34°38' E 134°59'4 9.3
2018-Jun-17 06:00N 34°36' E 135°04'611.5
2018-Jun-17 05:30N 34°30' E 135°04'612.7
2018-Jun-17 05:00N 34°24' E 135°02'612.5
2018-Jun-17 04:30N 34°18' E 134°60'611.9
2018-Jun-17 03:59N 34°12' E 134°60'612.8
2018-Jun-17 03:30N 34°06' E 135°00'713.0
2018-Jun-17 03:00N 33°59' E 135°02'612.6
2018-Jun-17 02:30N 33°53' E 135°03'3 0.1
2018-Jun-15 02:44N 33°50' E 135°03'313.9
2018-Jun-15 02:29N 33°53' E 135°00'613.4
2018-Jun-15 02:00N 33°57' E 134°56'712.6
2018-Jun-15 01:29N 34°03' E 134°50'713.0
2018-Jun-15 00:56N 34°08' E 134°45'512.7
2018-Jun-15 00:30N 34°12' E 134°41'10 1.9
2018-Jun-14 18:54N 34°17' E 134°29'511.9
2018-Jun-14 18:30N 34°19' E 134°24'3 0.1
2018-Jun-13 07:00N 34°21' E 134°27'1313.1
2018-Jun-13 06:01N 34°14' E 134°39'012.0
2018-Jun-13 05:59N 34°13' E 134°40'811.9
2018-Jun-13 05:18N 34°07' E 134°46'412.4
2018-Jun-13 05:00N 34°04' E 134°49'712.7
2018-Jun-13 04:29N 33°59' E 134°54'612.1
2018-Jun-13 04:00N 33°54' E 134°58'510.6
2018-Jun-13 03:30N 33°51' E 135°03'711.6
2018-Jun-13 02:54N 33°46' E 135°09'  

Dump ship's entire track history